createdAt,value
2023-08-14T00:00:55.938Z,2.72
2023-08-14T00:03:23.522Z,1.80
2023-08-14T00:05:50.566Z,1.60
2023-08-14T00:08:17.279Z,1.77
2023-08-14T00:10:44.108Z,2.22
2023-08-14T00:13:10.871Z,1.98
2023-08-14T00:15:37.711Z,2.65
2023-08-14T00:18:05.332Z,2.53
2023-08-14T00:20:32.276Z,2.35
2023-08-14T00:22:58.967Z,1.88
2023-08-14T00:25:25.666Z,2.03
2023-08-14T00:27:52.384Z,2.10
2023-08-14T00:30:19.120Z,2.30
2023-08-14T00:32:45.919Z,2.20
2023-08-14T00:35:12.781Z,3.78
2023-08-14T00:37:42.402Z,2.90
2023-08-14T00:40:11.342Z,2.17
2023-08-14T00:42:43.438Z,2.83
2023-08-14T00:45:11.194Z,2.35
2023-08-14T00:47:39.385Z,2.28
2023-08-14T00:50:08.870Z,3.25
2023-08-14T00:52:38.319Z,1.77
2023-08-14T00:55:10.631Z,2.00
2023-08-14T00:57:38.115Z,2.55
2023-08-14T01:00:06.870Z,2.63
2023-08-14T01:02:35.307Z,2.30
2023-08-14T01:05:02.293Z,2.10
2023-08-14T01:07:30.982Z,2.15
2023-08-14T01:09:58.481Z,2.20
2023-08-14T01:12:55.109Z,2.40
2023-08-14T01:15:31.328Z,6.45
2023-08-14T01:18:03.702Z,2.30
2023-08-14T01:20:33.177Z,2.13
2023-08-14T01:23:36.523Z,2.65
2023-08-14T01:26:03.904Z,2.60
2023-08-14T01:28:30.986Z,2.03
2023-08-14T01:30:58.123Z,2.42
2023-08-14T01:33:24.940Z,2.67
2023-08-14T01:36:11.348Z,2.05
2023-08-14T01:38:48.782Z,2.10
2023-08-14T01:41:51.077Z,3.85
2023-08-14T01:44:20.312Z,2.08
2023-08-14T01:46:48.830Z,1.63
2023-08-14T01:49:18.694Z,4.97
2023-08-14T01:51:47.519Z,2.28
2023-08-14T01:54:14.234Z,1.98
2023-08-14T01:56:40.914Z,1.92
2023-08-14T01:59:07.632Z,5.18
2023-08-14T02:01:34.360Z,2.17
2023-08-14T02:04:01.068Z,3.58
2023-08-14T02:06:27.928Z,2.50
2023-08-14T02:08:54.603Z,2.20
2023-08-14T02:11:21.318Z,1.85
2023-08-14T02:13:48.037Z,4.05
2023-08-14T02:16:14.781Z,2.10
2023-08-14T02:18:41.694Z,2.42
2023-08-14T02:21:08.382Z,4.65
2023-08-14T02:23:35.043Z,3.13
2023-08-14T02:26:01.819Z,2.60
2023-08-14T02:28:28.609Z,2.58
2023-08-14T02:30:55.451Z,3.78
2023-08-14T02:33:22.185Z,4.80
2023-08-14T02:35:48.882Z,4.30
2023-08-14T02:38:15.562Z,5.43
2023-08-14T02:40:42.242Z,5.40
2023-08-14T02:43:08.953Z,6.88
2023-08-14T02:45:35.804Z,5.45
2023-08-14T02:48:02.587Z,4.70
2023-08-14T02:50:29.357Z,5.07
2023-08-14T02:52:56.167Z,5.00
2023-08-14T02:55:23.896Z,5.03
2023-08-14T02:57:51.360Z,4.75
2023-08-14T03:00:19.023Z,5.25
2023-08-14T03:02:45.801Z,5.10
2023-08-14T03:05:12.532Z,5.22
2023-08-14T03:07:39.235Z,5.70
2023-08-14T03:10:07.029Z,5.57
2023-08-14T03:12:33.776Z,6.00
2023-08-14T03:15:00.497Z,6.45
2023-08-14T03:17:27.341Z,6.72
2023-08-14T03:19:54.135Z,7.82
2023-08-14T03:22:21.027Z,8.02
2023-08-14T03:24:47.831Z,8.95
2023-08-14T03:27:14.838Z,8.25
2023-08-14T03:29:41.550Z,8.95
2023-08-14T03:32:08.332Z,7.97
2023-08-14T03:34:35.034Z,8.57
2023-08-14T03:37:01.767Z,7.22
2023-08-14T03:39:28.465Z,7.40
2023-08-14T03:41:55.142Z,7.30
2023-08-14T03:44:21.836Z,7.93
2023-08-14T03:46:48.578Z,8.20
2023-08-14T03:49:16.601Z,7.05
2023-08-14T03:51:43.368Z,6.70
2023-08-14T03:54:10.141Z,6.40
2023-08-14T03:56:36.945Z,6.32
2023-08-14T03:59:03.990Z,7.40
2023-08-14T04:01:30.760Z,8.05
2023-08-14T04:03:57.518Z,8.68
2023-08-14T04:06:24.431Z,7.65
2023-08-14T04:08:51.146Z,8.45
2023-08-14T04:11:18.273Z,7.68
2023-08-14T04:13:44.958Z,8.65
2023-08-14T04:16:11.805Z,10.07
2023-08-14T04:18:38.530Z,10.70
2023-08-14T04:21:05.372Z,10.52
2023-08-14T04:23:32.080Z,11.70
2023-08-14T04:25:58.832Z,7.95
2023-08-14T04:28:25.652Z,8.63
2023-08-14T04:30:52.527Z,8.48
2023-08-14T04:33:19.828Z,8.68
2023-08-14T04:35:46.609Z,8.88
2023-08-14T04:38:13.403Z,9.30
2023-08-14T04:40:41.156Z,10.48
2023-08-14T04:43:07.883Z,9.85
2023-08-14T04:45:36.142Z,11.25
2023-08-14T04:48:02.989Z,13.82
2023-08-14T04:50:29.698Z,14.75
2023-08-14T04:52:56.423Z,14.57
2023-08-14T04:55:24.974Z,13.82
2023-08-14T04:57:51.975Z,15.07
2023-08-14T05:00:19.174Z,15.52
2023-08-14T05:02:46.232Z,17.25
2023-08-14T05:05:12.972Z,16.10
2023-08-14T05:07:39.839Z,16.15
2023-08-14T05:10:07.859Z,10.70
2023-08-14T05:12:34.724Z,13.55
2023-08-14T05:15:01.509Z,12.13
2023-08-14T05:17:28.490Z,15.82
2023-08-14T05:19:55.258Z,12.60
2023-08-14T05:22:23.084Z,12.40
2023-08-14T05:24:49.776Z,12.25
2023-08-14T05:27:16.511Z,12.43
2023-08-14T05:29:43.269Z,12.00
2023-08-14T05:32:09.922Z,10.57
2023-08-14T05:34:36.595Z,10.00
2023-08-14T05:37:03.469Z,8.80
2023-08-14T05:39:30.203Z,6.28
2023-08-14T05:41:56.928Z,6.57
2023-08-14T05:44:23.661Z,7.15
2023-08-14T05:46:50.444Z,7.53
2023-08-14T05:49:17.756Z,6.38
2023-08-14T05:51:45.476Z,5.70
2023-08-14T05:54:12.176Z,5.30
2023-08-14T05:56:38.826Z,5.18
2023-08-14T05:59:05.720Z,4.05
2023-08-14T06:01:32.474Z,3.30
2023-08-14T06:03:59.262Z,4.85
2023-08-14T06:06:26.047Z,4.35
2023-08-14T06:08:52.741Z,9.02
2023-08-14T06:11:19.931Z,3.78
2023-08-14T06:13:46.680Z,5.03
2023-08-14T06:16:13.444Z,3.10
2023-08-14T06:18:40.347Z,4.95
2023-08-14T06:21:07.114Z,3.65
2023-08-14T06:23:33.811Z,5.18
2023-08-14T06:26:00.740Z,3.70
2023-08-14T06:28:27.508Z,2.97
2023-08-14T06:31:04.421Z,3.30
2023-08-14T06:33:31.664Z,5.68
2023-08-14T06:35:58.412Z,4.45
2023-08-14T06:38:27.067Z,3.13
2023-08-14T06:40:53.754Z,6.88
2023-08-14T06:43:21.484Z,2.83
2023-08-14T06:45:49.925Z,3.33
2023-08-14T06:48:16.754Z,4.22
2023-08-14T06:50:43.550Z,2.67
2023-08-14T06:53:12.432Z,4.70
2023-08-14T06:55:39.120Z,2.40
2023-08-14T06:58:05.840Z,3.28
2023-08-14T07:00:34.960Z,2.63
2023-08-14T07:03:03.993Z,3.65
2023-08-14T07:05:30.764Z,3.35
2023-08-14T07:07:57.465Z,3.08
2023-08-14T07:10:24.185Z,2.97
2023-08-14T07:12:52.519Z,3.92
2023-08-14T07:15:19.520Z,3.13
2023-08-14T07:17:48.646Z,2.50
2023-08-14T07:20:15.498Z,2.83
2023-08-14T07:22:44.121Z,4.95
2023-08-14T07:25:10.842Z,4.65
2023-08-14T07:27:39.723Z,3.60
2023-08-14T07:30:07.267Z,3.97
2023-08-14T07:32:34.041Z,7.30
2023-08-14T07:35:00.830Z,7.63
2023-08-14T07:37:27.565Z,4.07
2023-08-14T07:39:54.266Z,2.33
2023-08-14T07:42:21.468Z,2.47
2023-08-14T07:44:48.468Z,2.80
2023-08-14T07:47:15.193Z,2.47
2023-08-14T07:49:43.973Z,1.95
2023-08-14T07:52:11.392Z,2.97
2023-08-14T07:54:39.992Z,2.50
2023-08-14T07:57:06.744Z,2.35
2023-08-14T07:59:33.555Z,2.42
2023-08-14T08:02:02.019Z,2.88
2023-08-14T08:07:05.688Z,5.38
2023-08-14T08:09:32.911Z,3.00
2023-08-14T08:11:59.633Z,2.55
2023-08-14T08:14:29.609Z,2.85
2023-08-14T08:16:56.376Z,3.67
2023-08-14T08:19:24.740Z,3.00
2023-08-14T08:21:52.008Z,2.92
2023-08-14T08:24:24.160Z,2.45
2023-08-14T08:26:50.832Z,2.78
2023-08-14T08:29:20.179Z,3.13
2023-08-14T08:31:46.908Z,4.85
2023-08-14T08:34:13.680Z,2.90
2023-08-14T08:36:40.362Z,2.22
2023-08-14T08:39:07.057Z,3.78
2023-08-14T08:41:36.863Z,2.95
2023-08-14T08:44:07.557Z,2.37
2023-08-14T08:46:44.323Z,3.20
2023-08-14T08:49:12.208Z,2.92
2023-08-14T08:51:40.530Z,2.80
2023-08-14T08:54:07.490Z,2.58
2023-08-14T08:56:35.524Z,2.42
2023-08-14T08:59:03.547Z,3.28
2023-08-14T09:01:32.085Z,2.75
2023-08-14T09:03:59.378Z,2.00
2023-08-14T09:06:26.246Z,2.40
2023-08-14T09:08:53.124Z,2.33
2023-08-14T09:11:19.889Z,3.47
2023-08-14T09:13:52.309Z,3.38
2023-08-14T09:16:19.670Z,2.65
2023-08-14T09:18:47.288Z,5.20
2023-08-14T09:21:15.381Z,2.13
2023-08-14T09:23:43.390Z,2.17
2023-08-14T09:26:15.042Z,2.22
2023-08-14T09:28:46.220Z,2.22
2023-08-14T09:31:15.858Z,2.58
2023-08-14T09:33:46.383Z,1.85
2023-08-14T09:36:17.861Z,2.30
2023-08-14T09:38:44.655Z,7.28
2023-08-14T09:41:12.460Z,7.68
2023-08-14T09:43:40.518Z,3.65
2023-08-14T09:46:13.931Z,3.58
2023-08-14T09:48:47.998Z,2.22
2023-08-14T09:51:19.263Z,4.72
2023-08-14T09:53:56.548Z,3.00
2023-08-14T09:56:25.568Z,2.33
2023-08-14T09:58:54.510Z,3.15
2023-08-14T10:01:23.544Z,4.03
2023-08-14T10:03:54.981Z,3.05
2023-08-14T10:06:24.947Z,2.40
2023-08-14T10:09:01.588Z,2.20
2023-08-14T10:11:30.442Z,4.55
2023-08-14T10:14:02.188Z,2.70
2023-08-14T10:16:41.636Z,3.15
2023-08-14T10:19:14.665Z,2.42
2023-08-14T10:21:43.859Z,3.97
2023-08-14T10:24:12.899Z,4.22
2023-08-14T10:26:39.887Z,3.15
2023-08-14T10:29:07.176Z,4.22
2023-08-14T10:31:34.879Z,2.53
2023-08-14T10:34:02.399Z,5.30
2023-08-14T10:36:31.078Z,7.00
2023-08-14T10:39:18.206Z,2.47
2023-08-14T10:41:46.288Z,4.78
2023-08-14T10:44:13.271Z,3.78
2023-08-14T10:46:44.553Z,3.35
2023-08-14T10:49:16.201Z,3.50
2023-08-14T10:51:43.859Z,2.50
2023-08-14T10:54:15.209Z,2.63
2023-08-14T10:56:43.356Z,4.20
2023-08-14T10:59:24.521Z,3.08
2023-08-14T11:02:07.413Z,2.60
2023-08-14T11:04:37.850Z,2.70
2023-08-14T11:09:35.005Z,2.50
2023-08-14T11:12:10.021Z,3.75
2023-08-14T11:14:39.969Z,3.50
2023-08-14T11:17:08.225Z,3.15
2023-08-14T11:19:36.432Z,2.58
2023-08-14T11:22:03.783Z,4.47
2023-08-14T11:24:30.929Z,3.55
2023-08-14T11:27:01.807Z,3.00
2023-08-14T11:29:30.883Z,3.63
2023-08-14T11:32:01.312Z,5.13
2023-08-14T11:34:28.269Z,5.40
2023-08-14T11:39:30.173Z,2.67
2023-08-14T11:41:59.370Z,2.50
2023-08-14T11:44:26.234Z,2.47
2023-08-14T11:46:53.912Z,2.40
2023-08-14T11:49:22.658Z,4.97
2023-08-14T11:51:50.123Z,3.08
2023-08-14T11:54:19.067Z,3.08
2023-08-14T11:56:48.457Z,4.70
2023-08-14T11:59:17.025Z,2.97
2023-08-14T12:01:44.267Z,4.45
2023-08-14T12:04:11.738Z,2.58
2023-08-14T12:06:38.646Z,2.53
2023-08-14T12:09:10.997Z,2.25
2023-08-14T12:11:39.289Z,2.70
2023-08-14T12:14:07.778Z,3.40
2023-08-14T12:16:39.590Z,4.20
2023-08-14T12:19:13.223Z,4.95
2023-08-14T12:21:40.193Z,2.60
2023-08-14T12:24:09.486Z,2.70
2023-08-14T12:26:42.241Z,2.75
2023-08-14T12:29:15.742Z,2.35
2023-08-14T12:31:42.664Z,2.55
2023-08-14T12:34:11.297Z,3.63
2023-08-14T12:36:38.030Z,2.60
2023-08-14T12:39:05.451Z,2.50
2023-08-14T12:41:32.541Z,2.97
2023-08-14T12:44:01.604Z,2.78
2023-08-14T12:46:28.385Z,2.65
2023-08-14T12:48:55.237Z,2.40
2023-08-14T12:51:21.933Z,3.28
2023-08-14T12:53:48.635Z,3.42
2023-08-14T12:56:18.691Z,2.28
2023-08-14T13:03:46.198Z,3.17
2023-08-14T13:06:12.978Z,2.75
2023-08-14T13:08:41.505Z,2.50
2023-08-14T13:11:10.172Z,2.72
2023-08-14T13:13:38.814Z,2.58
2023-08-14T13:16:05.974Z,3.22
2023-08-14T13:18:33.530Z,3.40
2023-08-14T13:21:00.698Z,2.50
2023-08-14T13:23:27.445Z,2.25
2023-08-14T13:25:54.205Z,2.50
2023-08-14T13:28:22.816Z,2.03
2023-08-14T13:30:51.511Z,2.47
2023-08-14T13:33:18.451Z,2.45
2023-08-14T13:35:45.726Z,1.90
2023-08-14T13:38:12.525Z,2.50
2023-08-14T13:40:39.637Z,2.47
2023-08-14T13:43:08.557Z,1.50
2023-08-14T13:45:35.282Z,3.38
2023-08-14T13:48:02.009Z,1.55
2023-08-14T13:50:33.294Z,2.65
2023-08-14T13:53:02.671Z,2.33
2023-08-14T13:55:32.629Z,2.58
2023-08-14T13:58:02.862Z,2.10
2023-08-14T14:00:31.141Z,3.25
2023-08-14T14:03:01.317Z,2.00
2023-08-14T14:05:28.869Z,1.60
2023-08-14T14:07:57.702Z,2.30
2023-08-14T14:10:30.882Z,1.88
2023-08-14T14:15:29.741Z,1.90
2023-08-14T14:17:59.632Z,2.13
2023-08-14T14:20:26.746Z,2.80
2023-08-14T14:22:53.473Z,2.75
2023-08-14T14:25:21.540Z,2.10
2023-08-14T14:27:48.238Z,2.75
2023-08-14T14:30:14.976Z,2.33
2023-08-14T14:32:41.852Z,1.75
2023-08-14T14:35:08.844Z,1.92
2023-08-14T14:37:35.541Z,4.85
2023-08-14T14:40:02.304Z,1.77
2023-08-14T14:42:32.093Z,3.25
2023-08-14T14:44:59.488Z,2.38
2023-08-14T14:47:27.915Z,2.58
2023-08-14T14:49:54.659Z,2.00
2023-08-14T14:52:21.807Z,2.30
2023-08-14T14:54:51.455Z,2.22
2023-08-14T14:57:20.791Z,1.80
2023-08-14T14:59:48.428Z,2.17
2023-08-14T15:02:27.566Z,2.67
2023-08-14T15:04:56.539Z,2.15
2023-08-14T15:07:26.957Z,2.00
2023-08-14T15:12:20.388Z,1.75
2023-08-14T15:14:47.402Z,1.98
2023-08-14T15:17:14.076Z,2.20
2023-08-14T15:19:42.263Z,2.00
2023-08-14T15:22:08.939Z,1.83
2023-08-14T15:24:37.319Z,1.70
2023-08-14T15:27:04.115Z,1.83
2023-08-14T15:29:30.859Z,2.00
2023-08-14T15:31:57.526Z,1.80
2023-08-14T15:34:24.249Z,1.92
2023-08-14T15:36:50.977Z,2.17
2023-08-14T15:39:17.687Z,2.20
2023-08-14T15:41:44.439Z,2.30
2023-08-14T15:44:12.617Z,2.00
2023-08-14T15:46:39.307Z,2.05
2023-08-14T15:49:06.078Z,3.25
2023-08-14T15:51:32.864Z,1.80
2023-08-14T15:53:59.549Z,1.98
2023-08-14T15:56:27.476Z,1.98
2023-08-14T15:58:55.624Z,3.25
2023-08-14T16:01:24.465Z,2.75
2023-08-14T16:03:53.028Z,5.90
2023-08-14T16:06:19.775Z,2.42
2023-08-14T16:08:46.669Z,2.85
2023-08-14T16:11:13.422Z,2.30
2023-08-14T16:13:40.142Z,2.10
2023-08-14T16:16:06.886Z,1.92
2023-08-14T16:18:34.081Z,2.38
2023-08-14T16:21:05.887Z,3.08
2023-08-14T16:23:32.582Z,1.52
2023-08-14T16:26:04.682Z,2.33
2023-08-14T16:28:31.380Z,2.45
2023-08-14T16:30:58.312Z,2.15
2023-08-14T16:33:25.207Z,2.30
2023-08-14T16:35:53.016Z,3.63
2023-08-14T16:38:19.734Z,1.83
2023-08-14T16:40:46.706Z,2.70
2023-08-14T16:43:14.167Z,2.15
2023-08-14T16:45:42.197Z,1.83
2023-08-14T16:48:11.162Z,1.85
2023-08-14T16:50:39.644Z,2.20
2023-08-14T16:53:06.844Z,3.08
2023-08-14T16:55:34.603Z,3.35
2023-08-14T16:58:01.366Z,3.22
2023-08-14T17:00:28.319Z,2.17
2023-08-14T17:02:57.807Z,1.90
2023-08-14T17:05:24.939Z,2.17
2023-08-14T17:10:45.654Z,4.35
2023-08-14T17:13:12.358Z,5.40
2023-08-14T17:15:41.336Z,3.67
2023-08-14T17:18:08.610Z,7.95
2023-08-14T17:20:35.564Z,2.75
2023-08-14T17:23:02.740Z,3.33
2023-08-14T17:25:29.457Z,4.07
2023-08-14T17:27:57.827Z,2.28
2023-08-14T17:30:24.731Z,3.42
2023-08-14T17:32:52.752Z,2.53
2023-08-14T17:35:20.380Z,3.70
2023-08-14T17:37:47.184Z,22.30
2023-08-14T17:40:16.940Z,3.70
2023-08-14T17:42:44.092Z,2.20
2023-08-14T17:45:10.988Z,3.47
2023-08-14T17:47:37.782Z,4.07
2023-08-14T17:50:05.584Z,2.17
2023-08-14T17:52:33.238Z,2.50
2023-08-14T17:54:59.914Z,3.15
2023-08-14T17:57:26.616Z,2.78
2023-08-14T17:59:53.293Z,4.43
2023-08-14T18:02:20.073Z,3.33
2023-08-14T18:04:47.091Z,3.58
2023-08-14T18:07:15.356Z,2.53
2023-08-14T18:09:42.939Z,7.93
2023-08-14T18:12:09.645Z,3.15
2023-08-14T18:14:36.371Z,2.40
2023-08-14T18:17:05.816Z,2.42
2023-08-14T18:19:33.364Z,3.50
2023-08-14T18:22:00.218Z,2.80
2023-08-14T18:24:27.667Z,2.25
2023-08-14T18:26:54.351Z,4.28
2023-08-14T18:29:21.077Z,2.53
2023-08-14T18:31:47.957Z,2.50
2023-08-14T18:34:14.695Z,2.70
2023-08-14T18:36:41.411Z,3.28
2023-08-14T18:39:08.111Z,2.92
2023-08-14T18:41:37.812Z,2.17
2023-08-14T18:44:05.231Z,3.90
2023-08-14T18:46:32.054Z,3.65
2023-08-14T18:48:58.826Z,3.05
2023-08-14T18:51:25.505Z,2.63
2023-08-14T18:53:52.960Z,3.00
2023-08-14T18:56:19.681Z,4.50
2023-08-14T18:58:48.434Z,3.53
2023-08-14T19:01:15.206Z,6.72
2023-08-14T19:03:42.636Z,6.70
2023-08-14T19:06:10.965Z,5.28
2023-08-14T19:08:37.722Z,5.88
2023-08-14T19:11:04.413Z,7.57
2023-08-14T19:13:31.249Z,6.35
2023-08-14T19:15:58.079Z,6.32
2023-08-14T19:18:24.878Z,4.00
2023-08-14T19:20:51.741Z,4.30
2023-08-14T19:23:18.557Z,4.93
2023-08-14T19:25:45.263Z,5.90
2023-08-14T19:28:21.475Z,6.82
2023-08-14T19:30:49.844Z,7.95
2023-08-14T19:33:16.832Z,5.43
2023-08-14T19:35:46.568Z,4.57
2023-08-14T19:38:13.290Z,7.25
2023-08-14T19:40:40.085Z,6.05
2023-08-14T19:43:07.610Z,4.63
2023-08-14T19:45:36.198Z,4.65
2023-08-14T19:48:03.082Z,4.95
2023-08-14T19:50:29.879Z,5.13
2023-08-14T19:52:56.651Z,5.45
2023-08-14T19:55:23.310Z,5.32
2023-08-14T19:57:50.021Z,5.25
2023-08-14T20:00:16.878Z,9.05
2023-08-14T20:02:43.777Z,6.13
2023-08-14T20:05:10.479Z,5.70
2023-08-14T20:07:37.200Z,7.10
2023-08-14T20:10:04.166Z,6.50
2023-08-14T20:12:30.862Z,5.25
2023-08-14T20:14:57.928Z,4.93
2023-08-14T20:17:24.823Z,5.25
2023-08-14T20:19:52.928Z,7.18
2023-08-14T20:22:19.653Z,8.95
2023-08-14T20:24:48.232Z,7.68
2023-08-14T20:27:14.962Z,5.63
2023-08-14T20:29:41.710Z,6.22
2023-08-14T20:32:08.468Z,6.07
2023-08-14T20:34:35.140Z,4.97
2023-08-14T20:37:01.982Z,7.07
2023-08-14T20:39:29.409Z,5.47
2023-08-14T20:41:56.110Z,6.78
2023-08-14T20:44:22.808Z,6.53
2023-08-14T20:46:49.677Z,8.23
2023-08-14T20:49:16.411Z,8.82
2023-08-14T20:51:43.115Z,13.07
2023-08-14T20:54:09.802Z,12.02
2023-08-14T20:56:36.499Z,11.98
2023-08-14T20:59:03.594Z,10.90
2023-08-14T21:01:30.422Z,9.27
2023-08-14T21:03:57.294Z,9.60
2023-08-14T21:06:24.093Z,10.05
2023-08-14T21:08:50.809Z,9.48
2023-08-14T21:11:17.581Z,10.45
2023-08-14T21:13:44.448Z,14.60
2023-08-14T21:16:11.148Z,12.48
2023-08-14T21:18:38.379Z,9.10
2023-08-14T21:21:05.683Z,9.63
2023-08-14T21:23:33.220Z,7.55
2023-08-14T21:25:59.998Z,7.80
2023-08-14T21:28:26.853Z,9.90
2023-08-14T21:31:02.617Z,9.00
2023-08-14T21:33:29.440Z,9.35
2023-08-14T21:35:56.951Z,9.63
2023-08-14T21:38:23.823Z,9.65
2023-08-14T21:40:50.633Z,7.93
2023-08-14T21:43:18.308Z,8.27
2023-08-14T21:45:47.918Z,8.15
2023-08-14T21:48:14.603Z,10.18
2023-08-14T21:50:41.341Z,8.95
2023-08-14T21:53:08.217Z,8.10
2023-08-14T21:55:34.925Z,6.10
2023-08-14T21:58:01.617Z,11.25
2023-08-14T22:00:29.106Z,7.15
2023-08-14T22:02:55.908Z,10.43
2023-08-14T22:05:22.681Z,6.68
2023-08-14T22:07:49.353Z,7.15
2023-08-14T22:10:16.088Z,7.45
2023-08-14T22:12:45.673Z,9.45
2023-08-14T22:15:12.744Z,7.43
2023-08-14T22:17:39.636Z,6.63
2023-08-14T22:20:09.192Z,5.93
2023-08-14T22:22:35.887Z,6.85
2023-08-14T22:25:03.250Z,6.80
2023-08-14T22:27:33.495Z,8.10
2023-08-14T22:30:00.339Z,7.30
2023-08-14T22:32:27.050Z,6.75
2023-08-14T22:34:53.826Z,7.38
2023-08-14T22:37:20.916Z,9.23
2023-08-14T22:39:47.865Z,7.93
2023-08-14T22:42:14.601Z,6.63
2023-08-14T22:44:41.276Z,8.93
2023-08-14T22:47:07.961Z,6.70
2023-08-14T22:49:35.046Z,8.30
2023-08-14T22:52:01.770Z,6.70
2023-08-14T22:54:28.538Z,7.05
2023-08-14T22:56:55.285Z,6.60
2023-08-14T22:59:22.005Z,7.68
2023-08-14T23:01:48.700Z,7.22
2023-08-14T23:04:15.420Z,7.57
2023-08-14T23:06:42.138Z,8.77
2023-08-14T23:09:09.268Z,7.03
2023-08-14T23:11:36.018Z,7.28
2023-08-14T23:14:02.815Z,7.60
2023-08-14T23:16:30.255Z,7.70
2023-08-14T23:18:56.946Z,7.55
2023-08-14T23:21:23.666Z,8.05
2023-08-14T23:23:50.366Z,6.30
2023-08-14T23:26:17.379Z,7.38
2023-08-14T23:28:44.177Z,6.03
2023-08-14T23:31:11.329Z,6.95
2023-08-14T23:33:38.070Z,6.22
2023-08-14T23:36:04.892Z,6.28
2023-08-14T23:38:31.698Z,6.05
2023-08-14T23:40:58.378Z,6.65
2023-08-14T23:43:25.062Z,6.32
2023-08-14T23:45:51.769Z,8.30
2023-08-14T23:48:18.893Z,5.63
2023-08-14T23:50:46.406Z,6.53
2023-08-14T23:53:13.614Z,6.43
2023-08-14T23:55:43.865Z,7.75
2023-08-14T23:58:10.563Z,7.85
